Time;durP1;ratioP1;P1;durP2;ratioP2;P2;SDS_P1;SDS_P2;PMS_P1;PMS_P2;Temp;Humidity;BMP_temperature;BMP_pressure;BME280_temperature;BME280_humidity;BME280_pressure;Samples;Min_cycle;Max_cycle;Signal;HPM_P1;HPM_P2
2023/08/25 00:01:01;;;;;;;;;22.50;19.00;;;;;24.53;45.60;100657.55;109973;1265;21716;-76
2023/08/25 00:03:37;;;;;;;;;18.00;18.00;;;;;24.51;45.59;100662.17;110017;1266;20014;-76
2023/08/25 00:06:03;;;;;;;;;20.00;18.00;;;;;24.49;45.86;100664.46;110004;1250;20879;-76
2023/08/25 00:08:29;;;;;;;;;22.00;19.00;;;;;24.48;45.76;100670.83;109972;1259;20150;-77
2023/08/25 00:10:55;;;;;;;;;20.00;18.00;;;;;24.44;45.81;100670.73;110006;1266;19152;-75
2023/08/25 00:13:21;;;;;;;;;22.00;18.00;;;;;24.44;45.79;100670.50;109982;1266;19483;-75
2023/08/25 00:15:47;;;;;;;;;20.00;16.50;;;;;24.44;45.93;100672.75;109920;1250;21174;-76
2023/08/25 00:18:14;;;;;;;;;17.50;17.50;;;;;24.41;45.97;100667.88;109967;1251;20009;-76
2023/08/25 00:20:41;;;;;;;;;18.00;16.50;;;;;24.40;45.74;100672.55;110014;1250;20941;-76
2023/08/25 00:23:07;;;;;;;;;19.00;18.50;;;;;24.41;45.89;100682.54;110016;1250;22543;-75
2023/08/25 00:25:33;;;;;;;;;20.00;19.00;;;;;24.41;45.71;100682.60;110014;1250;20214;-75
2023/08/25 00:28:00;;;;;;;;;15.00;15.00;;;;;24.40;45.94;100681.90;110023;1251;20831;-75
2023/08/25 00:30:26;;;;;;;;;17.00;17.00;;;;;24.37;45.89;100688.96;109993;1251;22750;-76
2023/08/25 00:32:52;;;;;;;;;20.00;20.00;;;;;24.38;45.91;100688.17;109979;1265;23032;-77
2023/08/25 00:35:18;;;;;;;;;19.33;18.00;;;;;24.37;45.64;100685.90;109969;1251;22843;-77
2023/08/25 00:37:44;;;;;;;;;19.00;18.00;;;;;24.34;45.50;100687.59;109961;1265;20168;-76
2023/08/25 00:40:10;;;;;;;;;20.00;19.00;;;;;24.29;45.17;100681.95;109963;1251;20022;-76
2023/08/25 00:42:36;;;;;;;;;19.00;19.00;;;;;24.30;45.28;100670.55;109977;1266;19453;-75
2023/08/25 00:45:02;;;;;;;;;22.00;17.00;;;;;24.30;44.96;100671.26;109943;1251;21665;-75
2023/08/25 00:47:28;;;;;;;;;20.00;18.00;;;;;24.28;45.22;100665.38;109959;1260;22427;-75
2023/08/25 00:49:54;;;;;;;;;16.00;16.00;;;;;24.26;45.23;100664.23;109998;1266;22997;-76
2023/08/25 00:52:20;;;;;;;;;19.00;19.00;;;;;24.23;45.27;100658.85;109993;1251;23678;-76
2023/08/25 00:54:46;;;;;;;;;20.00;18.00;;;;;24.22;45.36;100645.39;109956;1250;23179;-76
2023/08/25 00:57:12;;;;;;;;;18.50;17.50;;;;;24.17;45.48;100641.91;109927;1265;19355;-75
2023/08/25 00:59:38;;;;;;;;;21.00;18.50;;;;;24.24;45.30;100640.17;109976;1265;22716;-76
2023/08/25 01:02:04;;;;;;;;;19.00;18.00;;;;;24.22;45.24;100636.92;109972;1265;20101;-75
2023/08/25 01:04:31;;;;;;;;;14.00;14.00;;;;;24.21;45.19;100634.40;110045;1251;20815;-76
2023/08/25 01:06:57;;;;;;;;;15.00;14.50;;;;;24.18;44.85;100624.71;110019;1251;22922;-76
2023/08/25 01:09:23;;;;;;;;;18.00;18.00;;;;;24.11;45.21;100624.59;109990;1250;22283;-76
2023/08/25 01:14:52;;;;;;;;;22.00;19.00;;;;;24.04;45.10;100624.31;109953;1265;20105;-76
2023/08/25 01:17:18;;;;;;;;;22.00;17.00;;;;;24.06;44.82;100626.48;109910;1250;23109;-76
2023/08/25 01:19:44;;;;;;;;;19.00;18.00;;;;;24.08;45.05;100629.73;109951;1260;23365;-77
2023/08/25 01:22:10;;;;;;;;;17.50;17.00;;;;;24.07;44.87;100630.23;109920;1251;21690;-77
2023/08/25 01:24:36;;;;;;;;;17.00;17.00;;;;;24.07;45.04;100628.64;109958;1265;18985;-76
2023/08/25 01:27:04;;;;;;;;;18.00;17.00;;;;;24.06;45.14;100630.41;109944;1265;19101;-76
2023/08/25 01:29:30;;;;;;;;;17.00;17.00;;;;;24.06;45.02;100626.08;109960;1250;23109;-76
2023/08/25 01:31:56;;;;;;;;;18.00;15.00;;;;;24.08;45.08;100622.98;109938;1250;19775;-76
2023/08/25 01:34:24;;;;;;;;;17.00;17.00;;;;;24.02;44.78;100612.30;110029;1260;23668;-76
2023/08/25 01:36:50;;;;;;;;;17.00;17.00;;;;;23.95;45.21;100607.48;110032;1250;23182;-76
2023/08/25 01:39:16;;;;;;;;;21.50;18.50;;;;;23.97;45.27;100607.06;109927;1251;23625;-76
2023/08/25 01:41:42;;;;;;;;;18.00;17.00;;;;;23.95;45.13;100606.48;109931;1260;23236;-76
2023/08/25 01:44:08;;;;;;;;;17.00;17.00;;;;;23.98;45.12;100603.05;109907;1265;23157;-76
2023/08/25 01:46:34;;;;;;;;;18.00;17.00;;;;;24.01;45.18;100600.88;109982;1251;21188;-76
2023/08/25 01:49:01;;;;;;;;;19.00;18.00;;;;;24.00;45.26;100603.58;109962;1251;21789;-77
2023/08/25 01:51:26;;;;;;;;;16.00;16.00;;;;;24.01;45.32;100607.60;110007;1250;21694;-77
2023/08/25 01:53:52;;;;;;;;;18.00;18.00;;;;;23.98;45.40;100606.27;109963;1265;19009;-80
2023/08/25 01:56:18;;;;;;;;;17.50;17.00;;;;;23.98;45.29;100610.02;109973;1250;21224;-79
2023/08/25 01:58:44;;;;;;;;;17.50;15.50;;;;;23.99;45.62;100612.63;109978;1250;20680;-77
2023/08/25 02:01:10;;;;;;;;;20.00;18.00;;;;;23.98;45.51;100623.46;110090;1250;23707;-76
2023/08/25 02:03:36;;;;;;;;;19.00;17.00;;;;;23.95;45.81;100623.02;110066;1265;22172;-75
2023/08/25 02:06:02;;;;;;;;;18.00;18.00;;;;;23.95;45.95;100626.08;110067;1250;21414;-75
2023/08/25 02:08:28;;;;;;;;;16.00;14.50;;;;;23.94;46.01;100626.03;110032;1250;22677;-75
2023/08/25 02:10:54;;;;;;;;;19.00;15.00;;;;;23.95;46.22;100623.66;109973;1251;21714;-76
2023/08/25 02:13:20;;;;;;;;;18.00;17.00;;;;;23.95;46.13;100622.25;109989;1266;20531;-77
2023/08/25 02:15:46;;;;;;;;;21.00;19.00;;;;;23.96;46.14;100621.30;109989;1253;19840;-76
2023/08/25 02:18:12;;;;;;;;;21.00;18.00;;;;;23.97;46.00;100618.16;110012;1266;19233;-76
2023/08/25 02:20:39;;;;;;;;;17.00;15.00;;;;;23.95;46.08;100604.96;109963;1259;21397;-79
2023/08/25 02:23:05;;;;;;;;;16.50;16.50;;;;;23.88;46.20;100596.83;109982;1265;22209;-77
2023/08/25 02:25:31;;;;;;;;;18.00;18.00;;;;;23.85;46.48;100591.84;109953;1266;20629;-75
2023/08/25 02:27:57;;;;;;;;;20.50;18.50;;;;;23.81;46.83;100588.08;109982;1250;22770;-75
2023/08/25 02:30:23;;;;;;;;;19.00;19.00;;;;;23.79;46.90;100587.77;109927;1266;23633;-75
2023/08/25 02:32:49;;;;;;;;;22.00;19.00;;;;;23.80;46.87;100586.39;109948;1251;23512;-75
2023/08/25 02:35:15;;;;;;;;;18.67;18.00;;;;;23.82;46.96;100590.73;109998;1266;21606;-76
2023/08/25 02:37:41;;;;;;;;;17.00;17.00;;;;;23.83;46.82;100591.17;109940;1251;21128;-76
2023/08/25 02:40:07;;;;;;;;;21.00;21.00;;;;;23.82;46.69;100591.02;109942;1266;19105;-75
2023/08/25 02:42:33;;;;;;;;;22.00;19.50;;;;;23.82;46.78;100586.65;109954;1266;19928;-76
2023/08/25 02:44:59;;;;;;;;;18.00;17.00;;;;;23.81;46.65;100578.89;109940;1265;19083;-76
2023/08/25 02:47:26;;;;;;;;;17.00;17.00;;;;;23.82;46.45;100570.94;109945;1265;20653;-75
2023/08/25 02:49:51;;;;;;;;;17.00;17.00;;;;;23.81;46.25;100558.21;109957;1251;23530;-76
2023/08/25 02:52:17;;;;;;;;;17.00;17.00;;;;;23.79;46.27;100547.20;109926;1265;18948;-76
2023/08/25 02:54:43;;;;;;;;;19.00;18.00;;;;;23.78;46.26;100544.36;109978;1265;21852;-76
2023/08/25 02:57:09;;;;;;;;;18.00;17.00;;;;;23.68;46.47;100537.83;109967;1251;21564;-76
2023/08/25 02:59:35;;;;;;;;;17.00;17.00;;;;;23.69;46.60;100536.77;109972;1251;19730;-77
2023/08/25 03:02:01;;;;;;;;;21.00;18.00;;;;;23.67;46.84;100536.04;109975;1266;20568;-77
2023/08/25 03:04:27;;;;;;;;;18.00;17.00;;;;;23.61;46.78;100534.64;109982;1250;21567;-76
2023/08/25 03:06:54;;;;;;;;;16.50;16.00;;;;;23.61;46.88;100536.39;109987;1251;21452;-77
2023/08/25 03:09:20;;;;;;;;;18.00;17.00;;;;;23.61;47.00;100535.34;110042;1266;20800;-77
2023/08/25 03:11:46;;;;;;;;;20.00;17.00;;;;;23.61;47.04;100530.38;109928;1266;19877;-78
2023/08/25 03:14:12;;;;;;;;;20.00;18.00;;;;;23.59;46.79;100528.16;109924;1251;19727;-77
2023/08/25 03:16:38;;;;;;;;;20.00;18.00;;;;;23.55;47.20;100524.23;109934;1251;20676;-76
2023/08/25 03:19:04;;;;;;;;;;;;;;;23.53;47.21;100518.33;109952;1266;19925;-76
2023/08/25 03:21:30;;;;;;;;;23.00;18.50;;;;;23.52;47.21;100518.88;109971;1265;18929;-76
2023/08/25 03:23:56;;;;;;;;;18.00;18.00;;;;;23.48;47.22;100514.50;110004;1265;23561;-76
2023/08/25 03:26:22;;;;;;;;;16.00;16.00;;;;;23.46;47.31;100519.27;110038;1266;19764;-76
2023/08/25 03:28:48;;;;;;;;;18.00;17.00;;;;;23.48;47.23;100519.09;109982;1251;23640;-77
2023/08/25 03:31:14;;;;;;;;;21.00;20.00;;;;;23.47;47.25;100524.30;109996;1250;21782;-77
2023/08/25 03:33:40;;;;;;;;;18.00;18.00;;;;;23.48;47.49;100525.81;110000;1266;22396;-79
2023/08/25 03:36:06;;;;;;;;;18.00;17.00;;;;;23.49;47.54;100526.79;109926;1251;23595;-77
2023/08/25 03:38:32;;;;;;;;;17.00;16.00;;;;;23.44;47.40;100525.60;109926;1250;20550;-77
2023/08/25 03:40:58;;;;;;;;;17.50;17.00;;;;;23.45;47.52;100522.70;109936;1265;20008;-77
2023/08/25 03:43:24;;;;;;;;;18.00;17.00;;;;;23.50;47.36;100524.47;109910;1266;19852;-77
2023/08/25 03:45:50;;;;;;;;;17.00;16.00;;;;;23.50;47.34;100520.00;109925;1265;19241;-76
2023/08/25 03:48:16;;;;;;;;;17.00;17.00;;;;;23.50;47.35;100520.54;109924;1254;21332;-82
2023/08/25 03:50:41;;;;;;;;;17.00;17.00;;;;;23.50;47.33;100519.99;109945;1266;18902;-81
2023/08/25 03:53:07;;;;;;;;;17.00;17.00;;;;;23.52;47.17;100524.52;109953;1251;20517;-82
2023/08/25 03:55:33;;;;;;;;;17.50;17.50;;;;;23.54;47.13;100520.84;109942;1250;23259;-80
2023/08/25 03:57:59;;;;;;;;;20.00;20.00;;;;;23.52;47.28;100519.48;110007;1250;21072;-80
2023/08/25 04:00:25;;;;;;;;;18.00;18.00;;;;;23.51;47.36;100516.77;109995;1250;19448;-80
2023/08/25 04:02:51;;;;;;;;;18.00;18.00;;;;;23.52;47.31;100522.15;110023;1260;19949;-79
2023/08/25 04:05:17;;;;;;;;;21.00;18.00;;;;;23.51;47.35;100519.49;109986;1259;23101;-80
2023/08/25 04:07:43;;;;;;;;;18.00;17.50;;;;;23.48;47.43;100524.39;109994;1251;22456;-80
2023/08/25 04:10:09;;;;;;;;;18.00;18.00;;;;;23.49;47.30;100523.19;110006;1250;22471;-79
2023/08/25 04:12:35;;;;;;;;;21.00;20.00;;;;;23.50;47.41;100523.40;109969;1265;18994;-80
2023/08/25 04:15:01;;;;;;;;;20.00;18.00;;;;;23.47;47.52;100523.09;109979;1265;19209;-80
2023/08/25 04:17:27;;;;;;;;;17.50;16.50;;;;;23.48;47.62;100521.66;110002;1265;20145;-80
2023/08/25 04:19:53;;;;;;;;;18.00;17.00;;;;;23.45;47.48;100516.56;109960;1265;20816;-80
2023/08/25 04:22:19;;;;;;;;;20.00;18.00;;;;;23.44;47.50;100511.61;109938;1251;21848;-80
2023/08/25 04:24:45;;;;;;;;;20.00;18.00;;;;;23.39;47.88;100505.48;109969;1251;21425;-80
2023/08/25 04:27:11;;;;;;;;;21.00;20.00;;;;;23.40;47.61;100508.92;110017;1251;23464;-80
2023/08/25 04:29:37;;;;;;;;;18.00;18.00;;;;;23.41;47.71;100507.77;110009;1251;19207;-80
2023/08/25 04:32:03;;;;;;;;;20.00;18.00;;;;;23.39;47.85;100507.19;110055;1251;21308;-80
2023/08/25 04:34:29;;;;;;;;;21.00;20.00;;;;;23.40;47.96;100499.19;109965;1251;20949;-80
2023/08/25 04:36:55;;;;;;;;;18.00;17.00;;;;;23.42;47.91;100491.61;109931;1250;22091;-80
2023/08/25 04:39:20;;;;;;;;;21.00;18.00;;;;;23.35;48.29;100487.93;109931;1250;21185;-80
2023/08/25 04:41:47;;;;;;;;;22.50;22.50;;;;;23.27;48.43;100484.55;109941;1250;19809;-81
2023/08/25 04:44:14;;;;;;;;;21.00;19.00;;;;;23.20;48.70;100478.80;109959;1251;23522;-80
2023/08/25 04:46:40;;;;;;;;;20.00;18.00;;;;;23.20;48.65;100473.91;109959;1265;22763;-81
2023/08/25 04:49:07;;;;;;;;;21.00;20.00;;;;;23.23;48.86;100474.33;109958;1260;19724;-81
2023/08/25 04:51:34;;;;;;;;;20.50;20.50;;;;;23.20;49.04;100476.48;109946;1251;22083;-83
2023/08/25 04:54:00;;;;;;;;;23.00;18.00;;;;;23.13;49.20;100480.63;109972;1265;22856;-82
2023/08/25 04:56:26;;;;;;;;;20.00;17.50;;;;;23.19;49.03;100478.96;109998;1265;23558;-81
2023/08/25 04:58:51;;;;;;;;;23.00;20.00;;;;;23.10;49.16;100474.11;109955;1251;23596;-82
2023/08/25 05:01:17;;;;;;;;;18.00;17.00;;;;;23.08;49.28;100471.89;110012;1266;20504;-77
2023/08/25 05:03:44;;;;;;;;;14.00;13.00;;;;;23.08;49.52;100465.55;110018;1251;22984;-76
2023/08/25 05:06:11;;;;;;;;;14.00;14.00;;;;;23.39;48.96;100459.62;110027;1251;21022;-77
2023/08/25 05:08:36;;;;;;;;;12.00;12.00;;;;;23.57;48.70;100452.33;110000;1266;19998;-77
2023/08/25 05:11:03;;;;;;;;;12.00;12.00;;;;;23.71;48.42;100452.35;110005;1250;19769;-77
2023/08/25 05:13:29;;;;;;;;;10.00;10.00;;;;;23.80;48.12;100444.61;110026;1260;22188;-77
2023/08/25 05:15:55;;;;;;;;;12.00;10.00;;;;;23.86;48.12;100437.28;110006;1251;21264;-77
2023/08/25 05:18:22;;;;;;;;;13.00;13.00;;;;;23.93;47.62;100433.77;110002;1251;19782;-77
2023/08/25 05:20:48;;;;;;;;;9.00;9.00;;;;;23.97;47.76;100432.80;109974;1251;23087;-76
2023/08/25 05:23:14;;;;;;;;;10.00;10.00;;;;;24.01;47.62;100436.82;109959;1251;20194;-75
2023/08/25 05:25:41;;;;;;;;;11.00;10.67;;;;;24.06;47.74;100437.60;110008;1266;19281;-76
2023/08/25 05:28:07;;;;;;;;;10.00;10.00;;;;;24.12;47.82;100432.79;110003;1251;22249;-77
2023/08/25 05:30:33;;;;;;;;;317.67;238.00;;;;;24.22;48.14;100429.50;109987;1251;23208;-78
2023/08/25 05:32:59;;;;;;;;;361.50;261.50;;;;;24.27;48.15;100425.34;109963;1251;22541;-76
2023/08/25 05:35:25;;;;;;;;;253.00;184.00;;;;;24.28;48.01;100422.81;109959;1250;21396;-77
2023/08/25 05:37:51;;;;;;;;;229.50;165.50;;;;;24.31;48.17;100414.70;109981;1251;21244;-76
2023/08/25 05:40:17;;;;;;;;;160.50;120.50;;;;;24.41;47.93;100414.29;109974;1266;23069;-77
2023/08/25 05:42:43;;;;;;;;;100.00;69.00;;;;;24.43;47.90;100408.52;109998;1251;20702;-81
2023/08/25 05:45:09;;;;;;;;;87.00;63.00;;;;;24.34;47.98;100404.69;110006;1250;21454;-77
2023/08/25 05:47:35;;;;;;;;;57.00;43.00;;;;;24.20;48.19;100407.55;109993;1259;22097;-83
2023/08/25 05:50:02;;;;;;;;;50.00;42.00;;;;;24.09;48.53;100404.34;109926;1251;21797;-77
2023/08/25 05:52:28;;;;;;;;;37.00;27.00;;;;;24.08;48.66;100398.01;109967;1251;22726;-76
2023/08/25 05:54:54;;;;;;;;;34.00;31.00;;;;;24.01;48.82;100392.11;109938;1266;20977;-82
2023/08/25 05:57:20;;;;;;;;;27.00;23.00;;;;;23.96;49.07;100382.96;109911;1250;20654;-78
2023/08/25 05:59:46;;;;;;;;;25.00;22.00;;;;;23.88;49.46;100376.20;109937;1251;23063;-79
2023/08/25 06:02:11;;;;;;;;;24.00;21.00;;;;;23.69;49.68;100375.27;109979;1251;23086;-76
2023/08/25 06:04:37;;;;;;;;;23.00;21.00;;;;;23.40;50.83;100376.52;109984;1265;21560;-78
2023/08/25 06:07:03;;;;;;;;;21.50;20.50;;;;;23.18;51.24;100372.73;110009;1250;19936;-79
2023/08/25 06:09:29;;;;;;;;;21.00;20.00;;;;;23.38;51.00;100377.86;109963;1265;19023;-78
2023/08/25 06:11:55;;;;;;;;;20.00;19.00;;;;;23.55;50.71;100384.17;109995;1260;19582;-77
2023/08/25 06:14:21;;;;;;;;;20.00;18.00;;;;;23.67;50.22;100386.30;109981;1265;19895;-81
2023/08/25 06:16:47;;;;;;;;;20.00;18.00;;;;;23.71;50.29;100386.94;109936;1250;19736;-81
2023/08/25 06:19:13;;;;;;;;;16.00;16.00;;;;;23.76;50.03;100387.98;109941;1265;19315;-81
2023/08/25 06:21:39;;;;;;;;;25.00;21.00;;;;;23.76;50.08;100380.23;109940;1260;19971;-82
2023/08/25 06:24:05;;;;;;;;;20.00;18.00;;;;;23.72;50.23;100383.26;109946;1265;19147;-80
2023/08/25 06:26:31;;;;;;;;;17.00;16.00;;;;;23.74;50.10;100374.95;109956;1260;20993;-80
2023/08/25 06:28:57;;;;;;;;;19.00;17.50;;;;;23.78;50.01;100370.02;109994;1266;20154;-81
2023/08/25 06:31:23;;;;;;;;;18.00;17.00;;;;;23.81;49.94;100365.76;110008;1250;19979;-81
2023/08/25 06:33:49;;;;;;;;;16.00;16.00;;;;;23.75;50.19;100362.31;109968;1266;22105;-84
2023/08/25 06:36:15;;;;;;;;;18.00;18.00;;;;;23.83;49.95;100367.70;109996;1251;22897;-79
2023/08/25 06:38:41;;;;;;;;;22.00;21.00;;;;;23.82;50.24;100366.19;109961;1266;20578;-79
2023/08/25 06:41:08;;;;;;;;;21.00;19.00;;;;;23.86;50.04;100360.85;110048;1251;20876;-79
2023/08/25 06:43:34;;;;;;;;;20.00;18.00;;;;;23.84;50.11;100359.98;110081;1265;21895;-80
2023/08/25 06:46:00;;;;;;;;;22.00;21.00;;;;;23.82;50.27;100354.15;110045;1260;20921;-74
2023/08/25 06:48:26;;;;;;;;;21.00;20.00;;;;;23.51;50.95;100356.17;110014;1254;21825;-75
2023/08/25 06:50:52;;;;;;;;;16.00;14.00;;;;;23.70;50.47;100359.77;110002;1265;21191;-74
2023/08/25 06:53:17;;;;;;;;;22.00;21.00;;;;;23.72;50.83;100356.72;109914;1265;19727;-75
2023/08/25 06:55:43;;;;;;;;;25.00;22.00;;;;;23.36;51.79;100354.16;109955;1251;20563;-76
2023/08/25 06:58:09;;;;;;;;;24.00;21.00;;;;;22.99;53.23;100351.70;109927;1260;21418;-76
2023/08/25 07:00:36;;;;;;;;;24.00;23.00;;;;;22.80;54.01;100356.38;109953;1251;22595;-76
2023/08/25 07:03:03;;;;;;;;;21.00;21.00;;;;;22.69;54.02;100353.77;109999;1250;20847;-75
2023/08/25 07:05:29;;;;;;;;;21.00;20.00;;;;;22.56;54.79;100347.23;109958;1266;20146;-76
2023/08/25 07:07:55;;;;;;;;;24.00;21.00;;;;;22.62;54.69;100350.02;109931;1265;22552;-76
2023/08/25 07:10:21;;;;;;;;;27.00;23.00;;;;;22.75;54.43;100348.40;109938;1251;20648;-75
2023/08/25 07:12:47;;;;;;;;;23.00;21.00;;;;;22.77;54.42;100347.61;109952;1251;21661;-77
2023/08/25 07:15:13;;;;;;;;;23.50;23.50;;;;;22.65;54.84;100346.12;109953;1266;23146;-75
2023/08/25 07:17:39;;;;;;;;;22.00;20.00;;;;;22.55;55.63;100345.70;109989;1266;19554;-76
2023/08/25 07:20:05;;;;;;;;;27.00;23.00;;;;;22.75;55.14;100340.91;109943;1265;23389;-77
2023/08/25 07:22:31;;;;;;;;;22.50;20.00;;;;;22.95;54.60;100337.67;109927;1250;19872;-75
2023/08/25 07:24:58;;;;;;;;;24.00;24.00;;;;;23.01;54.62;100339.44;109906;1250;22443;-77
2023/08/25 07:27:24;;;;;;;;;24.00;23.00;;;;;23.07;54.46;100338.80;109960;1266;20920;-76
2023/08/25 07:29:53;;;;;;;;;24.00;24.00;;;;;23.04;54.55;100337.81;109933;1266;18896;-77
2023/08/25 07:32:19;;;;;;;;;24.00;23.00;;;;;23.05;54.36;100333.48;109883;1266;196841;-77
2023/08/25 07:34:45;;;;;;;;;20.00;20.00;;;;;23.12;54.08;100336.45;110007;1265;20036;-79
2023/08/25 07:37:11;;;;;;;;;17.00;16.00;;;;;23.25;53.93;100338.20;110037;1265;23515;-77
2023/08/25 07:39:37;;;;;;;;;19.00;17.50;;;;;23.47;53.61;100335.18;110017;1250;20939;-79
2023/08/25 07:42:03;;;;;;;;;20.00;18.00;;;;;23.62;52.96;100329.89;109992;1251;21365;-79
2023/08/25 07:44:29;;;;;;;;;17.00;16.00;;;;;23.73;52.68;100326.25;110027;1265;23154;-77
2023/08/25 07:46:55;;;;;;;;;14.00;14.00;;;;;23.81;52.67;100326.92;110009;1259;22213;-75
2023/08/25 07:49:21;;;;;;;;;19.00;17.00;;;;;23.88;52.18;100325.05;110034;1251;21085;-76
2023/08/25 07:51:47;;;;;;;;;11.00;11.00;;;;;23.95;52.06;100327.94;110032;1266;19420;-76
2023/08/25 07:54:13;;;;;;;;;13.00;13.00;;;;;23.99;51.85;100327.48;110032;1266;19198;-76
2023/08/25 07:56:39;;;;;;;;;11.50;11.50;;;;;24.03;51.74;100329.15;110000;1267;19874;-76
2023/08/25 07:59:05;;;;;;;;;10.50;10.50;;;;;24.07;51.66;100328.42;109995;1265;19001;-76
2023/08/25 08:01:31;;;;;;;;;12.00;10.00;;;;;24.10;51.54;100328.36;109993;1251;22897;-76
2023/08/25 08:03:57;;;;;;;;;10.50;10.50;;;;;24.13;51.28;100325.23;109965;1266;23546;-76
2023/08/25 08:06:23;;;;;;;;;13.00;11.00;;;;;24.16;51.18;100323.03;109937;1250;23021;-76
2023/08/25 08:08:49;;;;;;;;;11.00;11.00;;;;;24.20;51.32;100324.18;110006;1251;21889;-76
2023/08/25 08:11:15;;;;;;;;;11.00;11.00;;;;;24.21;51.19;100325.73;109989;1260;20106;-77
2023/08/25 08:13:41;;;;;;;;;10.00;9.00;;;;;24.22;50.88;100321.83;109977;1265;19809;-76
2023/08/25 08:16:07;;;;;;;;;11.00;11.00;;;;;24.25;51.11;100317.95;109960;1265;19371;-77
2023/08/25 08:18:33;;;;;;;;;10.00;10.00;;;;;24.27;51.00;100312.09;109960;1260;21146;-76
2023/08/25 08:20:59;;;;;;;;;9.00;9.00;;;;;24.28;51.18;100311.35;109962;1259;21295;-76
2023/08/25 08:23:25;;;;;;;;;11.00;11.00;;;;;24.30;50.88;100306.48;109935;1265;19406;-76
2023/08/25 08:25:51;;;;;;;;;13.00;11.00;;;;;24.33;50.80;100303.58;109934;1250;21456;-74
2023/08/25 08:28:17;;;;;;;;;10.00;9.50;;;;;24.36;50.78;100310.68;109926;1266;19087;-75
2023/08/25 08:30:44;;;;;;;;;10.50;10.50;;;;;24.39;50.65;100311.39;109940;1265;19297;-75
2023/08/25 08:33:10;;;;;;;;;10.00;10.00;;;;;24.41;50.53;100308.95;109957;1265;22000;-75
2023/08/25 08:35:36;;;;;;;;;11.00;10.00;;;;;24.44;50.47;100304.61;109947;1266;23246;-75
2023/08/25 08:38:03;;;;;;;;;10.00;9.67;;;;;24.44;50.76;100300.02;110037;1265;20693;-75
2023/08/25 08:40:31;;;;;;;;;10.00;10.00;;;;;24.46;50.44;100304.29;110010;1260;20130;-75
2023/08/25 08:42:57;;;;;;;;;11.00;10.00;;;;;24.51;50.33;100306.44;110013;1251;20471;-77
2023/08/25 08:45:24;;;;;;;;;9.50;8.00;;;;;24.53;50.28;100308.09;109958;1265;20548;-77
2023/08/25 08:47:50;;;;;;;;;9.00;9.00;;;;;24.53;50.32;100307.81;109967;1250;20266;-77
2023/08/25 08:50:16;;;;;;;;;11.00;9.50;;;;;24.55;50.16;100304.92;109924;1251;19767;-77
2023/08/25 08:52:42;;;;;;;;;9.00;9.00;;;;;24.55;50.41;100303.12;109946;1265;20846;-78
2023/08/25 08:55:09;;;;;;;;;;;;;;;24.56;50.20;100303.81;109911;1251;22503;-77
2023/08/25 08:57:35;;;;;;;;;9.00;9.00;;;;;24.56;50.21;100303.93;109976;1265;19612;-77
2023/08/25 09:00:03;;;;;;;;;7.00;7.00;;;;;24.53;50.58;100298.39;109956;1250;23427;-77
2023/08/25 09:02:29;;;;;;;;;8.00;8.00;;;;;24.55;50.36;100291.89;109945;1251;23257;-76
2023/08/25 09:04:55;;;;;;;;;6.50;6.50;;;;;24.59;50.21;100284.77;109937;1251;19631;-76
2023/08/25 09:07:23;;;;;;;;;9.00;9.00;;;;;24.58;50.43;100284.60;109955;1266;21555;-76
2023/08/25 09:09:50;;;;;;;;;9.00;9.00;;;;;24.60;50.35;100277.39;109948;1251;22557;-75
2023/08/25 09:12:17;;;;;;;;;9.00;9.00;;;;;24.59;50.27;100276.48;109970;1251;19402;-76
2023/08/25 09:14:43;;;;;;;;;9.00;9.00;;;;;24.61;50.19;100279.22;109949;1266;23279;-76
2023/08/25 09:17:09;;;;;;;;;9.00;9.00;;;;;24.64;50.21;100281.23;109934;1250;21238;-76
2023/08/25 09:19:35;;;;;;;;;;;;;;;24.69;49.91;100283.59;110007;1265;19394;-77
2023/08/25 09:22:02;;;;;;;;;9.00;9.00;;;;;24.73;49.77;100283.33;110005;1265;18925;-76
2023/08/25 09:24:29;;;;;;;;;11.00;11.00;;;;;24.73;50.00;100279.88;109995;1265;21592;-76
2023/08/25 09:26:55;;;;;;;;;8.00;7.00;;;;;24.77;50.30;100280.66;109996;1265;19740;-75
2023/08/25 09:29:22;;;;;;;;;11.00;10.00;;;;;24.79;50.61;100283.09;109919;1265;19108;-77
2023/08/25 09:31:48;;;;;;;;;10.00;10.00;;;;;24.78;50.71;100283.27;109951;1266;21358;-75
2023/08/25 09:34:14;;;;;;;;;9.00;7.00;;;;;24.78;50.95;100281.56;109937;1265;19541;-75
2023/08/25 09:36:40;;;;;;;;;9.00;9.00;;;;;24.77;50.92;100276.78;109952;1250;20566;-77
2023/08/25 09:39:07;;;;;;;;;9.00;7.00;;;;;24.80;51.11;100268.38;109932;1250;20094;-78
2023/08/25 09:41:33;;;;;;;;;11.50;10.00;;;;;24.89;51.19;100265.33;109969;1250;19624;-78
2023/08/25 09:43:59;;;;;;;;;7.00;7.00;;;;;24.94;51.13;100258.14;109920;1266;22549;-76
2023/08/25 09:46:25;;;;;;;;;10.00;10.00;;;;;24.89;51.37;100264.03;109920;1260;19959;-76
2023/08/25 09:48:51;;;;;;;;;10.00;10.00;;;;;24.90;51.47;100265.59;109948;1259;19002;-81
2023/08/25 09:51:17;;;;;;;;;26.00;25.00;;;;;24.96;51.54;100272.80;109995;1250;20922;-79
2023/08/25 09:53:43;;;;;;;;;35.00;33.00;;;;;25.21;51.49;100274.37;109945;1266;19922;-80
2023/08/25 09:56:09;;;;;;;;;29.00;29.00;;;;;25.53;51.01;100278.42;109998;1251;20975;-76
2023/08/25 09:58:35;;;;;;;;;57.00;48.00;;;;;25.49;51.33;100282.49;109988;1250;20726;-76
2023/08/25 10:01:01;;;;;;;;;39.00;38.00;;;;;25.37;51.84;100282.73;109988;1250;21378;-76
2023/08/25 10:03:27;;;;;;;;;27.00;26.00;;;;;25.58;50.95;100288.79;110000;1260;19292;-76
2023/08/25 10:05:53;;;;;;;;;29.00;25.00;;;;;25.73;49.83;100287.98;109992;1265;19392;-76
2023/08/25 10:08:19;;;;;;;;;30.00;26.00;;;;;25.80;49.73;100293.77;110001;1250;21627;-76
2023/08/25 10:10:45;;;;;;;;;28.00;24.00;;;;;25.79;49.51;100293.73;109928;1251;22961;-76
2023/08/25 10:13:11;;;;;;;;;26.00;25.00;;;;;25.68;49.65;100290.08;109899;1266;19226;-75
2023/08/25 10:15:37;;;;;;;;;29.00;26.00;;;;;25.71;49.89;100293.44;109920;1265;19948;-75
2023/08/25 10:18:03;;;;;;;;;30.00;26.00;;;;;25.78;49.94;100293.98;109937;1251;19927;-76
2023/08/25 10:20:29;;;;;;;;;24.00;22.00;;;;;25.63;49.98;100302.76;109980;1250;22122;-74
2023/08/25 10:22:55;;;;;;;;;29.00;26.00;;;;;25.42;50.61;100297.46;109966;1265;23166;-77
2023/08/25 10:25:21;;;;;;;;;28.00;26.00;;;;;25.71;50.33;100302.55;109961;1266;19382;-74
2023/08/25 10:27:47;;;;;;;;;29.00;26.00;;;;;25.64;50.54;100297.95;109976;1265;19467;-79
2023/08/25 10:30:14;;;;;;;;;28.00;25.00;;;;;25.64;50.47;100294.02;109933;1265;19875;-76
2023/08/25 10:32:40;;;;;;;;;24.00;22.00;;;;;25.73;50.45;100296.15;109984;1266;23045;-75
2023/08/25 10:35:07;;;;;;;;;25.00;24.50;;;;;25.88;49.86;100291.48;109973;1254;20740;-75
2023/08/25 10:37:33;;;;;;;;;28.00;27.00;;;;;26.04;49.41;100295.99;110009;1251;22894;-74
2023/08/25 10:40:00;;;;;;;;;25.00;24.00;;;;;25.95;49.80;100294.02;109967;1266;23128;-74
2023/08/25 10:42:26;;;;;;;;;24.50;23.50;;;;;26.21;49.72;100295.70;109939;1250;19455;-75
2023/08/25 10:44:52;;;;;;;;;24.00;22.00;;;;;26.16;49.66;100286.83;109958;1266;20060;-75
2023/08/25 10:47:18;;;;;;;;;27.00;25.00;;;;;26.40;49.31;100281.66;109908;1265;19111;-76
2023/08/25 10:49:44;;;;;;;;;26.00;25.00;;;;;26.20;49.23;100277.27;109966;1260;23654;-76
2023/08/25 10:52:10;;;;;;;;;23.00;23.00;;;;;26.01;49.76;100271.36;110005;1252;23729;-76
2023/08/25 10:54:36;;;;;;;;;24.50;24.50;;;;;26.05;49.58;100270.89;109995;1265;20928;-75
2023/08/25 10:57:02;;;;;;;;;26.00;25.00;;;;;26.22;48.94;100269.15;109961;1250;20636;-76
2023/08/25 10:59:28;;;;;;;;;27.00;26.00;;;;;26.21;48.79;100267.07;109966;1251;21405;-76
2023/08/25 11:01:54;;;;;;;;;25.00;23.00;;;;;26.22;48.85;100262.01;109973;1266;22475;-75